TAF Text Data
IDs:
Format:
Raw Decoded Include METAR

Data at: 0205 UTC 29 May 2022

KATL 290201Z 2902/3006 32005KT P6SM FEW050 SCT250
  FM290300 31003KT P6SM FEW250
  FM291000 06004KT P6SM FEW250
  FM291500 13007KT P6SM FEW050